sensor_id;sensor_type;location;lat;lon;timestamp;P1;durP1;ratioP1;P2;durP2;ratioP2
4452;SDS011;2239;48.152;11.584;2023-02-15T00:01:27;2.53;;;1.17;;
4452;SDS011;2239;48.152;11.584;2023-02-15T00:03:52;1.47;;;1.00;;
4452;SDS011;2239;48.152;11.584;2023-02-15T00:06:18;4.57;;;1.60;;
4452;SDS011;2239;48.152;11.584;2023-02-15T00:08:44;4.07;;;1.73;;
4452;SDS011;2239;48.152;11.584;2023-02-15T00:11:10;3.07;;;1.30;;
4452;SDS011;2239;48.152;11.584;2023-02-15T00:13:37;3.63;;;2.35;;
4452;SDS011;2239;48.152;11.584;2023-02-15T00:16:06;6.82;;;1.17;;
4452;SDS011;2239;48.152;11.584;2023-02-15T00:18:37;1.90;;;1.30;;
4452;SDS011;2239;48.152;11.584;2023-02-15T00:21:04;8.23;;;1.27;;
4452;SDS011;2239;48.152;11.584;2023-02-15T00:23:31;1.80;;;1.60;;
4452;SDS011;2239;48.152;11.584;2023-02-15T00:26:07;4.03;;;1.90;;
4452;SDS011;2239;48.152;11.584;2023-02-15T00:28:35;1.42;;;0.90;;
4452;SDS011;2239;48.152;11.584;2023-02-15T00:31:10;0.60;;;0.60;;
4452;SDS011;2239;48.152;11.584;2023-02-15T00:33:37;7.13;;;1.08;;
4452;SDS011;2239;48.152;11.584;2023-02-15T00:36:04;1.77;;;1.17;;
4452;SDS011;2239;48.152;11.584;2023-02-15T00:38:32;0.88;;;0.80;;
4452;SDS011;2239;48.152;11.584;2023-02-15T00:40:59;1.52;;;1.30;;
4452;SDS011;2239;48.152;11.584;2023-02-15T00:43:25;1.98;;;1.80;;
4452;SDS011;2239;48.152;11.584;2023-02-15T00:45:52;9.68;;;1.85;;
4452;SDS011;2239;48.152;11.584;2023-02-15T00:48:18;3.57;;;2.00;;
4452;SDS011;2239;48.152;11.584;2023-02-15T00:50:45;1.15;;;1.15;;
4452;SDS011;2239;48.152;11.584;2023-02-15T00:53:11;3.50;;;1.02;;
4452;SDS011;2239;48.152;11.584;2023-02-15T00:55:37;3.30;;;1.05;;
4452;SDS011;2239;48.152;11.584;2023-02-15T00:58:05;1.60;;;1.50;;
4452;SDS011;2239;48.152;11.584;2023-02-15T01:00:31;1.27;;;0.85;;
4452;SDS011;2239;48.152;11.584;2023-02-15T01:02:56;2.60;;;1.60;;
4452;SDS011;2239;48.152;11.584;2023-02-15T01:05:22;1.00;;;0.70;;
4452;SDS011;2239;48.152;11.584;2023-02-15T01:07:48;1.47;;;0.90;;
4452;SDS011;2239;48.152;11.584;2023-02-15T01:10:13;1.13;;;0.80;;
4452;SDS011;2239;48.152;11.584;2023-02-15T01:12:40;3.63;;;2.00;;
4452;SDS011;2239;48.152;11.584;2023-02-15T01:15:05;3.80;;;1.77;;
4452;SDS011;2239;48.152;11.584;2023-02-15T01:17:31;0.87;;;0.80;;
4452;SDS011;2239;48.152;11.584;2023-02-15T01:19:57;1.10;;;1.10;;
4452;SDS011;2239;48.152;11.584;2023-02-15T01:22:24;2.05;;;1.27;;
4452;SDS011;2239;48.152;11.584;2023-02-15T01:24:50;3.60;;;1.40;;
4452;SDS011;2239;48.152;11.584;2023-02-15T01:27:15;1.40;;;1.30;;
4452;SDS011;2239;48.152;11.584;2023-02-15T01:29:41;1.77;;;0.70;;
4452;SDS011;2239;48.152;11.584;2023-02-15T01:32:06;3.00;;;1.60;;
4452;SDS011;2239;48.152;11.584;2023-02-15T01:34:32;0.93;;;0.77;;
4452;SDS011;2239;48.152;11.584;2023-02-15T01:36:57;4.73;;;1.20;;
4452;SDS011;2239;48.152;11.584;2023-02-15T01:39:23;7.17;;;1.53;;
4452;SDS011;2239;48.152;11.584;2023-02-15T01:41:48;0.60;;;0.60;;
4452;SDS011;2239;48.152;11.584;2023-02-15T01:50:08;3.05;;;1.27;;
4452;SDS011;2239;48.152;11.584;2023-02-15T01:52:44;0.65;;;0.65;;
4452;SDS011;2239;48.152;11.584;2023-02-15T01:55:15;1.88;;;1.70;;
4452;SDS011;2239;48.152;11.584;2023-02-15T01:57:41;3.10;;;0.80;;
4452;SDS011;2239;48.152;11.584;2023-02-15T02:00:08;1.58;;;1.15;;
4452;SDS011;2239;48.152;11.584;2023-02-15T02:02:34;2.23;;;0.97;;
4452;SDS011;2239;48.152;11.584;2023-02-15T02:05:00;2.38;;;1.20;;
4452;SDS011;2239;48.152;11.584;2023-02-15T02:07:32;1.38;;;1.15;;
4452;SDS011;2239;48.152;11.584;2023-02-15T02:10:05;8.13;;;0.90;;
4452;SDS011;2239;48.152;11.584;2023-02-15T02:12:34;0.93;;;0.93;;
4452;SDS011;2239;48.152;11.584;2023-02-15T02:15:02;0.40;;;0.40;;
4452;SDS011;2239;48.152;11.584;2023-02-15T02:20:28;2.42;;;1.30;;
4452;SDS011;2239;48.152;11.584;2023-02-15T02:31:02;0.60;;;0.60;;
4452;SDS011;2239;48.152;11.584;2023-02-15T02:36:59;3.70;;;1.05;;
4452;SDS011;2239;48.152;11.584;2023-02-15T02:42:25;5.75;;;2.63;;
4452;SDS011;2239;48.152;11.584;2023-02-15T02:45:03;1.92;;;1.23;;
4452;SDS011;2239;48.152;11.584;2023-02-15T02:47:43;1.50;;;1.15;;
4452;SDS011;2239;48.152;11.584;2023-02-15T02:50:15;0.90;;;0.85;;
4452;SDS011;2239;48.152;11.584;2023-02-15T02:52:43;2.22;;;1.17;;
4452;SDS011;2239;48.152;11.584;2023-02-15T02:55:21;3.13;;;2.65;;
4452;SDS011;2239;48.152;11.584;2023-02-15T02:57:58;1.60;;;1.17;;
4452;SDS011;2239;48.152;11.584;2023-02-15T03:03:20;5.45;;;2.05;;
4452;SDS011;2239;48.152;11.584;2023-02-15T03:05:57;3.72;;;2.28;;
4452;SDS011;2239;48.152;11.584;2023-02-15T03:08:25;1.58;;;1.48;;
4452;SDS011;2239;48.152;11.584;2023-02-15T03:10:56;0.88;;;0.85;;
4452;SDS011;2239;48.152;11.584;2023-02-15T03:13:25;1.50;;;1.50;;
4452;SDS011;2239;48.152;11.584;2023-02-15T03:15:51;0.80;;;0.63;;
4452;SDS011;2239;48.152;11.584;2023-02-15T03:18:37;3.42;;;1.95;;
4452;SDS011;2239;48.152;11.584;2023-02-15T03:21:08;1.85;;;1.75;;
4452;SDS011;2239;48.152;11.584;2023-02-15T03:23:47;2.00;;;1.00;;
4452;SDS011;2239;48.152;11.584;2023-02-15T03:26:19;6.57;;;1.40;;
4452;SDS011;2239;48.152;11.584;2023-02-15T03:28:46;1.80;;;1.67;;
4452;SDS011;2239;48.152;11.584;2023-02-15T03:31:15;1.02;;;0.93;;
4452;SDS011;2239;48.152;11.584;2023-02-15T03:33:57;2.38;;;1.77;;
4452;SDS011;2239;48.152;11.584;2023-02-15T03:36:32;6.20;;;1.95;;
4452;SDS011;2239;48.152;11.584;2023-02-15T03:42:19;1.63;;;1.10;;
4452;SDS011;2239;48.152;11.584;2023-02-15T03:44:44;1.15;;;0.88;;
4452;SDS011;2239;48.152;11.584;2023-02-15T03:47:16;7.40;;;2.28;;
4452;SDS011;2239;48.152;11.584;2023-02-15T03:49:47;3.85;;;1.35;;
4452;SDS011;2239;48.152;11.584;2023-02-15T03:52:26;1.95;;;1.20;;
4452;SDS011;2239;48.152;11.584;2023-02-15T03:54:54;2.63;;;1.40;;
4452;SDS011;2239;48.152;11.584;2023-02-15T03:57:24;8.07;;;2.15;;
4452;SDS011;2239;48.152;11.584;2023-02-15T04:00:15;3.17;;;2.38;;
4452;SDS011;2239;48.152;11.584;2023-02-15T04:05:45;1.90;;;1.23;;
4452;SDS011;2239;48.152;11.584;2023-02-15T04:08:11;5.93;;;2.17;;
4452;SDS011;2239;48.152;11.584;2023-02-15T04:10:37;4.20;;;1.55;;
4452;SDS011;2239;48.152;11.584;2023-02-15T04:13:20;3.00;;;1.92;;
4452;SDS011;2239;48.152;11.584;2023-02-15T04:15:47;1.40;;;1.30;;
4452;SDS011;2239;48.152;11.584;2023-02-15T04:18:29;1.52;;;1.40;;
4452;SDS011;2239;48.152;11.584;2023-02-15T04:21:15;1.83;;;1.48;;
4452;SDS011;2239;48.152;11.584;2023-02-15T04:23:59;4.10;;;1.92;;
4452;SDS011;2239;48.152;11.584;2023-02-15T04:26:43;1.50;;;0.73;;
4452;SDS011;2239;48.152;11.584;2023-02-15T04:29:09;6.23;;;3.80;;
4452;SDS011;2239;48.152;11.584;2023-02-15T04:31:34;2.30;;;1.70;;
4452;SDS011;2239;48.152;11.584;2023-02-15T04:34:00;1.13;;;0.73;;
4452;SDS011;2239;48.152;11.584;2023-02-15T04:36:26;3.07;;;0.93;;
4452;SDS011;2239;48.152;11.584;2023-02-15T04:38:51;3.03;;;2.20;;
4452;SDS011;2239;48.152;11.584;2023-02-15T04:41:17;1.00;;;1.00;;
4452;SDS011;2239;48.152;11.584;2023-02-15T04:43:42;2.90;;;1.73;;
4452;SDS011;2239;48.152;11.584;2023-02-15T04:46:08;1.63;;;1.10;;
4452;SDS011;2239;48.152;11.584;2023-02-15T04:48:33;2.37;;;1.50;;
4452;SDS011;2239;48.152;11.584;2023-02-15T04:50:59;3.97;;;2.30;;
4452;SDS011;2239;48.152;11.584;2023-02-15T04:53:24;1.50;;;1.13;;
4452;SDS011;2239;48.152;11.584;2023-02-15T04:55:50;6.13;;;1.50;;
4452;SDS011;2239;48.152;11.584;2023-02-15T04:58:15;2.87;;;1.47;;
4452;SDS011;2239;48.152;11.584;2023-02-15T05:00:41;1.27;;;1.17;;
4452;SDS011;2239;48.152;11.584;2023-02-15T05:03:06;4.50;;;1.80;;
4452;SDS011;2239;48.152;11.584;2023-02-15T05:05:32;2.10;;;1.57;;
4452;SDS011;2239;48.152;11.584;2023-02-15T05:07:57;4.13;;;2.03;;
4452;SDS011;2239;48.152;11.584;2023-02-15T05:10:23;3.43;;;1.27;;
4452;SDS011;2239;48.152;11.584;2023-02-15T05:12:48;4.60;;;2.10;;
4452;SDS011;2239;48.152;11.584;2023-02-15T05:15:14;1.90;;;1.43;;
4452;SDS011;2239;48.152;11.584;2023-02-15T05:17:39;1.67;;;1.10;;
4452;SDS011;2239;48.152;11.584;2023-02-15T05:20:05;4.23;;;1.60;;
4452;SDS011;2239;48.152;11.584;2023-02-15T05:22:31;7.53;;;3.45;;
4452;SDS011;2239;48.152;11.584;2023-02-15T05:24:57;2.73;;;1.23;;
4452;SDS011;2239;48.152;11.584;2023-02-15T05:27:41;1.42;;;1.30;;
4452;SDS011;2239;48.152;11.584;2023-02-15T05:30:25;8.52;;;1.33;;
4452;SDS011;2239;48.152;11.584;2023-02-15T05:32:51;2.83;;;1.60;;
4452;SDS011;2239;48.152;11.584;2023-02-15T05:35:16;0.87;;;0.87;;
4452;SDS011;2239;48.152;11.584;2023-02-15T05:37:43;3.65;;;1.83;;
4452;SDS011;2239;48.152;11.584;2023-02-15T05:40:09;4.00;;;1.40;;
4452;SDS011;2239;48.152;11.584;2023-02-15T05:42:35;11.10;;;2.90;;
4452;SDS011;2239;48.152;11.584;2023-02-15T05:45:00;6.57;;;2.93;;
4452;SDS011;2239;48.152;11.584;2023-02-15T05:47:26;2.90;;;1.40;;
4452;SDS011;2239;48.152;11.584;2023-02-15T05:49:51;3.20;;;1.63;;
4452;SDS011;2239;48.152;11.584;2023-02-15T05:52:17;2.27;;;1.77;;
4452;SDS011;2239;48.152;11.584;2023-02-15T05:54:42;1.17;;;0.97;;
4452;SDS011;2239;48.152;11.584;2023-02-15T05:57:08;3.57;;;1.70;;
4452;SDS011;2239;48.152;11.584;2023-02-15T05:59:34;2.57;;;1.73;;
4452;SDS011;2239;48.152;11.584;2023-02-15T06:01:59;3.07;;;1.67;;
4452;SDS011;2239;48.152;11.584;2023-02-15T06:04:25;4.60;;;1.57;;
4452;SDS011;2239;48.152;11.584;2023-02-15T06:06:50;8.73;;;1.30;;
4452;SDS011;2239;48.152;11.584;2023-02-15T06:09:16;1.33;;;1.23;;
4452;SDS011;2239;48.152;11.584;2023-02-15T06:11:43;2.03;;;1.55;;
4452;SDS011;2239;48.152;11.584;2023-02-15T06:14:09;9.68;;;1.67;;
4452;SDS011;2239;48.152;11.584;2023-02-15T06:16:35;8.80;;;1.10;;
4452;SDS011;2239;48.152;11.584;2023-02-15T06:19:01;10.77;;;2.37;;
4452;SDS011;2239;48.152;11.584;2023-02-15T06:21:27;4.38;;;2.00;;
4452;SDS011;2239;48.152;11.584;2023-02-15T06:23:54;4.20;;;2.65;;
4452;SDS011;2239;48.152;11.584;2023-02-15T06:26:19;1.50;;;1.03;;
4452;SDS011;2239;48.152;11.584;2023-02-15T06:28:45;3.10;;;1.03;;
4452;SDS011;2239;48.152;11.584;2023-02-15T06:31:10;1.80;;;1.67;;
4452;SDS011;2239;48.152;11.584;2023-02-15T06:33:36;1.50;;;1.40;;
4452;SDS011;2239;48.152;11.584;2023-02-15T06:36:02;1.03;;;1.03;;
4452;SDS011;2239;48.152;11.584;2023-02-15T06:38:28;2.70;;;1.98;;
4452;SDS011;2239;48.152;11.584;2023-02-15T06:40:54;1.55;;;1.42;;
4452;SDS011;2239;48.152;11.584;2023-02-15T06:43:20;12.37;;;1.83;;
4452;SDS011;2239;48.152;11.584;2023-02-15T06:45:45;2.70;;;1.60;;
4452;SDS011;2239;48.152;11.584;2023-02-15T06:48:11;3.63;;;1.03;;
4452;SDS011;2239;48.152;11.584;2023-02-15T06:50:37;1.40;;;1.30;;
4452;SDS011;2239;48.152;11.584;2023-02-15T06:53:03;3.13;;;1.73;;
4452;SDS011;2239;48.152;11.584;2023-02-15T06:55:28;2.40;;;2.20;;
4452;SDS011;2239;48.152;11.584;2023-02-15T06:57:54;1.83;;;1.37;;
4452;SDS011;2239;48.152;11.584;2023-02-15T07:00:20;4.23;;;1.60;;
4452;SDS011;2239;48.152;11.584;2023-02-15T07:02:47;3.90;;;2.05;;
4452;SDS011;2239;48.152;11.584;2023-02-15T07:05:12;7.27;;;1.40;;
4452;SDS011;2239;48.152;11.584;2023-02-15T07:07:38;2.60;;;1.60;;
4452;SDS011;2239;48.152;11.584;2023-02-15T07:10:04;6.13;;;2.13;;
4452;SDS011;2239;48.152;11.584;2023-02-15T07:12:30;1.95;;;1.75;;
4452;SDS011;2239;48.152;11.584;2023-02-15T07:15:08;6.88;;;2.08;;
4452;SDS011;2239;48.152;11.584;2023-02-15T07:17:36;1.50;;;1.25;;
4452;SDS011;2239;48.152;11.584;2023-02-15T07:20:09;8.38;;;2.35;;
4452;SDS011;2239;48.152;11.584;2023-02-15T07:22:36;6.28;;;1.67;;
4452;SDS011;2239;48.152;11.584;2023-02-15T07:25:05;0.80;;;0.80;;
4452;SDS011;2239;48.152;11.584;2023-02-15T07:27:32;4.05;;;2.40;;
4452;SDS011;2239;48.152;11.584;2023-02-15T07:29:59;6.37;;;2.10;;
4452;SDS011;2239;48.152;11.584;2023-02-15T07:32:28;9.68;;;1.70;;
4452;SDS011;2239;48.152;11.584;2023-02-15T07:34:55;8.98;;;1.75;;
4452;SDS011;2239;48.152;11.584;2023-02-15T07:37:21;5.22;;;1.45;;
4452;SDS011;2239;48.152;11.584;2023-02-15T07:39:47;2.50;;;1.20;;
4452;SDS011;2239;48.152;11.584;2023-02-15T07:42:12;2.30;;;1.90;;
4452;SDS011;2239;48.152;11.584;2023-02-15T07:44:38;3.10;;;2.47;;
4452;SDS011;2239;48.152;11.584;2023-02-15T07:47:04;1.57;;;1.47;;
4452;SDS011;2239;48.152;11.584;2023-02-15T07:49:29;5.33;;;2.10;;
4452;SDS011;2239;48.152;11.584;2023-02-15T07:51:55;8.27;;;3.70;;
4452;SDS011;2239;48.152;11.584;2023-02-15T07:54:20;2.50;;;1.80;;
4452;SDS011;2239;48.152;11.584;2023-02-15T07:56:46;2.27;;;1.90;;
4452;SDS011;2239;48.152;11.584;2023-02-15T07:59:11;4.23;;;1.93;;
4452;SDS011;2239;48.152;11.584;2023-02-15T08:01:38;4.60;;;2.57;;
4452;SDS011;2239;48.152;11.584;2023-02-15T08:04:04;6.10;;;2.65;;
4452;SDS011;2239;48.152;11.584;2023-02-15T08:06:32;13.48;;;2.47;;
4452;SDS011;2239;48.152;11.584;2023-02-15T08:08:59;3.63;;;2.00;;
4452;SDS011;2239;48.152;11.584;2023-02-15T08:11:30;4.38;;;3.53;;
4452;SDS011;2239;48.152;11.584;2023-02-15T08:14:02;7.60;;;2.45;;
4452;SDS011;2239;48.152;11.584;2023-02-15T08:19:09;7.07;;;2.20;;
4452;SDS011;2239;48.152;11.584;2023-02-15T08:21:50;3.03;;;1.50;;
4452;SDS011;2239;48.152;11.584;2023-02-15T08:24:20;10.23;;;2.15;;
4452;SDS011;2239;48.152;11.584;2023-02-15T08:26:47;2.13;;;2.03;;
4452;SDS011;2239;48.152;11.584;2023-02-15T08:29:14;3.70;;;3.22;;
4452;SDS011;2239;48.152;11.584;2023-02-15T08:31:42;5.28;;;2.05;;
4452;SDS011;2239;48.152;11.584;2023-02-15T08:34:09;5.78;;;2.58;;
4452;SDS011;2239;48.152;11.584;2023-02-15T08:36:36;1.95;;;1.75;;
4452;SDS011;2239;48.152;11.584;2023-02-15T08:39:03;2.83;;;1.43;;
4452;SDS011;2239;48.152;11.584;2023-02-15T08:41:30;1.42;;;1.33;;
4452;SDS011;2239;48.152;11.584;2023-02-15T08:44:02;3.60;;;1.58;;
4452;SDS011;2239;48.152;11.584;2023-02-15T08:46:31;4.35;;;2.38;;
4452;SDS011;2239;48.152;11.584;2023-02-15T08:48:58;2.75;;;2.17;;
4452;SDS011;2239;48.152;11.584;2023-02-15T08:51:24;1.23;;;1.23;;
4452;SDS011;2239;48.152;11.584;2023-02-15T08:53:53;7.43;;;2.38;;
4452;SDS011;2239;48.152;11.584;2023-02-15T08:56:25;5.15;;;2.25;;
4452;SDS011;2239;48.152;11.584;2023-02-15T08:58:53;2.60;;;2.40;;
4452;SDS011;2239;48.152;11.584;2023-02-15T09:01:20;10.23;;;1.90;;
4452;SDS011;2239;48.152;11.584;2023-02-15T09:03:48;5.78;;;2.45;;
4452;SDS011;2239;48.152;11.584;2023-02-15T09:06:18;5.53;;;2.42;;
4452;SDS011;2239;48.152;11.584;2023-02-15T09:08:44;2.80;;;2.23;;
4452;SDS011;2239;48.152;11.584;2023-02-15T09:11:11;2.40;;;1.70;;
4452;SDS011;2239;48.152;11.584;2023-02-15T09:13:37;6.22;;;2.30;;
4452;SDS011;2239;48.152;11.584;2023-02-15T09:16:05;2.67;;;2.35;;
4452;SDS011;2239;48.152;11.584;2023-02-15T09:18:34;7.20;;;3.22;;
4452;SDS011;2239;48.152;11.584;2023-02-15T09:21:12;4.45;;;2.70;;
4452;SDS011;2239;48.152;11.584;2023-02-15T09:23:39;7.88;;;3.40;;
4452;SDS011;2239;48.152;11.584;2023-02-15T09:26:07;11.35;;;2.60;;
4452;SDS011;2239;48.152;11.584;2023-02-15T09:28:43;4.88;;;2.97;;
4452;SDS011;2239;48.152;11.584;2023-02-15T09:31:10;3.38;;;1.88;;
4452;SDS011;2239;48.152;11.584;2023-02-15T09:33:38;3.70;;;2.25;;
4452;SDS011;2239;48.152;11.584;2023-02-15T09:36:05;10.45;;;3.08;;
4452;SDS011;2239;48.152;11.584;2023-02-15T09:38:39;8.77;;;3.75;;
4452;SDS011;2239;48.152;11.584;2023-02-15T09:41:14;6.57;;;2.67;;
4452;SDS011;2239;48.152;11.584;2023-02-15T09:47:00;12.90;;;3.40;;
4452;SDS011;2239;48.152;11.584;2023-02-15T09:52:35;7.50;;;2.80;;
4452;SDS011;2239;48.152;11.584;2023-02-15T10:00:30;3.42;;;1.98;;
4452;SDS011;2239;48.152;11.584;2023-02-15T10:05:47;7.22;;;2.67;;
4452;SDS011;2239;48.152;11.584;2023-02-15T10:14:09;8.87;;;3.20;;
4452;SDS011;2239;48.152;11.584;2023-02-15T10:22:12;7.53;;;3.03;;
4452;SDS011;2239;48.152;11.584;2023-02-15T10:24:59;3.57;;;2.53;;
4452;SDS011;2239;48.152;11.584;2023-02-15T10:27:47;5.97;;;2.60;;
4452;SDS011;2239;48.152;11.584;2023-02-15T10:30:15;8.47;;;3.00;;
4452;SDS011;2239;48.152;11.584;2023-02-15T10:38:05;9.60;;;3.13;;
4452;SDS011;2239;48.152;11.584;2023-02-15T10:43:38;9.00;;;3.30;;
4452;SDS011;2239;48.152;11.584;2023-02-15T10:46:10;5.67;;;2.13;;
4452;SDS011;2239;48.152;11.584;2023-02-15T10:48:59;15.07;;;3.90;;
4452;SDS011;2239;48.152;11.584;2023-02-15T10:54:28;11.93;;;4.33;;
4452;SDS011;2239;48.152;11.584;2023-02-15T10:57:13;4.13;;;2.80;;
4452;SDS011;2239;48.152;11.584;2023-02-15T11:03:02;10.63;;;4.40;;
4452;SDS011;2239;48.152;11.584;2023-02-15T11:08:15;8.70;;;3.90;;
4452;SDS011;2239;48.152;11.584;2023-02-15T11:10:49;9.63;;;5.03;;
4452;SDS011;2239;48.152;11.584;2023-02-15T11:13:21;9.30;;;3.87;;
4452;SDS011;2239;48.152;11.584;2023-02-15T11:15:53;7.73;;;3.20;;
4452;SDS011;2239;48.152;11.584;2023-02-15T11:20:55;7.87;;;3.60;;
4452;SDS011;2239;48.152;11.584;2023-02-15T11:23:26;11.40;;;4.67;;
4452;SDS011;2239;48.152;11.584;2023-02-15T11:25:59;13.63;;;4.20;;
4452;SDS011;2239;48.152;11.584;2023-02-15T11:28:29;5.93;;;2.83;;
4452;SDS011;2239;48.152;11.584;2023-02-15T11:31:16;7.73;;;5.10;;
4452;SDS011;2239;48.152;11.584;2023-02-15T11:33:46;5.37;;;3.13;;
4452;SDS011;2239;48.152;11.584;2023-02-15T11:36:21;14.77;;;4.50;;
4452;SDS011;2239;48.152;11.584;2023-02-15T11:38:56;10.40;;;3.73;;
4452;SDS011;2239;48.152;11.584;2023-02-15T11:41:27;8.23;;;3.83;;
4452;SDS011;2239;48.152;11.584;2023-02-15T11:43:58;11.90;;;4.77;;
4452;SDS011;2239;48.152;11.584;2023-02-15T11:46:37;7.17;;;3.60;;
4452;SDS011;2239;48.152;11.584;2023-02-15T11:49:07;11.50;;;5.07;;
4452;SDS011;2239;48.152;11.584;2023-02-15T11:51:46;7.90;;;3.57;;
4452;SDS011;2239;48.152;11.584;2023-02-15T11:54:11;8.43;;;4.40;;
4452;SDS011;2239;48.152;11.584;2023-02-15T11:56:37;10.50;;;4.30;;
4452;SDS011;2239;48.152;11.584;2023-02-15T11:59:08;11.33;;;4.67;;
4452;SDS011;2239;48.152;11.584;2023-02-15T12:01:42;10.97;;;5.53;;
4452;SDS011;2239;48.152;11.584;2023-02-15T12:07:13;16.83;;;3.80;;
4452;SDS011;2239;48.152;11.584;2023-02-15T12:09:48;10.60;;;4.93;;
4452;SDS011;2239;48.152;11.584;2023-02-15T12:12:36;7.90;;;3.23;;
4452;SDS011;2239;48.152;11.584;2023-02-15T12:15:06;8.90;;;3.87;;
4452;SDS011;2239;48.152;11.584;2023-02-15T12:17:40;12.93;;;4.10;;
4452;SDS011;2239;48.152;11.584;2023-02-15T12:22:46;8.80;;;3.80;;
4452;SDS011;2239;48.152;11.584;2023-02-15T12:25:26;11.63;;;4.43;;
4452;SDS011;2239;48.152;11.584;2023-02-15T12:28:00;13.97;;;4.87;;
4452;SDS011;2239;48.152;11.584;2023-02-15T12:30:30;11.47;;;5.13;;
4452;SDS011;2239;48.152;11.584;2023-02-15T12:33:05;9.70;;;4.00;;
4452;SDS011;2239;48.152;11.584;2023-02-15T12:35:39;13.20;;;4.53;;
4452;SDS011;2239;48.152;11.584;2023-02-15T12:40:36;11.27;;;4.67;;
4452;SDS011;2239;48.152;11.584;2023-02-15T12:43:03;12.20;;;4.50;;
4452;SDS011;2239;48.152;11.584;2023-02-15T12:45:34;9.83;;;3.87;;
4452;SDS011;2239;48.152;11.584;2023-02-15T12:48:09;6.37;;;3.40;;
4452;SDS011;2239;48.152;11.584;2023-02-15T12:50:39;6.03;;;3.70;;
4452;SDS011;2239;48.152;11.584;2023-02-15T12:53:07;8.93;;;3.33;;
4452;SDS011;2239;48.152;11.584;2023-02-15T12:55:55;7.57;;;4.10;;
4452;SDS011;2239;48.152;11.584;2023-02-15T12:58:27;11.90;;;3.90;;
4452;SDS011;2239;48.152;11.584;2023-02-15T13:01:02;6.17;;;3.40;;
4452;SDS011;2239;48.152;11.584;2023-02-15T13:03:36;6.00;;;3.07;;
4452;SDS011;2239;48.152;11.584;2023-02-15T13:06:04;6.60;;;3.30;;
4452;SDS011;2239;48.152;11.584;2023-02-15T13:08:34;12.60;;;4.20;;
4452;SDS011;2239;48.152;11.584;2023-02-15T13:11:10;13.33;;;4.30;;
4452;SDS011;2239;48.152;11.584;2023-02-15T13:13:55;8.70;;;4.00;;
4452;SDS011;2239;48.152;11.584;2023-02-15T13:16:38;9.33;;;3.20;;
4452;SDS011;2239;48.152;11.584;2023-02-15T13:19:06;9.93;;;5.03;;
4452;SDS011;2239;48.152;11.584;2023-02-15T13:21:38;8.73;;;4.30;;
4452;SDS011;2239;48.152;11.584;2023-02-15T13:24:22;9.53;;;3.87;;
4452;SDS011;2239;48.152;11.584;2023-02-15T13:26:55;5.50;;;2.90;;
4452;SDS011;2239;48.152;11.584;2023-02-15T13:29:26;7.77;;;4.10;;
4452;SDS011;2239;48.152;11.584;2023-02-15T13:31:54;6.27;;;2.93;;
4452;SDS011;2239;48.152;11.584;2023-02-15T13:34:31;12.10;;;3.93;;
4452;SDS011;2239;48.152;11.584;2023-02-15T13:37:06;6.77;;;3.03;;
4452;SDS011;2239;48.152;11.584;2023-02-15T13:39:51;6.13;;;3.30;;
4452;SDS011;2239;48.152;11.584;2023-02-15T13:42:30;14.43;;;2.90;;
4452;SDS011;2239;48.152;11.584;2023-02-15T13:45:08;4.97;;;2.70;;
4452;SDS011;2239;48.152;11.584;2023-02-15T13:56:58;6.70;;;3.53;;
4452;SDS011;2239;48.152;11.584;2023-02-15T13:59:24;10.17;;;3.77;;
4452;SDS011;2239;48.152;11.584;2023-02-15T14:08:04;9.00;;;3.60;;
4452;SDS011;2239;48.152;11.584;2023-02-15T14:13:49;9.90;;;3.30;;
4452;SDS011;2239;48.152;11.584;2023-02-15T14:22:29;8.50;;;2.70;;
4452;SDS011;2239;48.152;11.584;2023-02-15T14:25:15;5.00;;;3.20;;
4452;SDS011;2239;48.152;11.584;2023-02-15T14:28:09;5.10;;;2.60;;
4452;SDS011;2239;48.152;11.584;2023-02-15T14:30:40;5.90;;;3.20;;
4452;SDS011;2239;48.152;11.584;2023-02-15T14:33:33;4.90;;;3.20;;
4452;SDS011;2239;48.152;11.584;2023-02-15T14:36:02;12.33;;;4.17;;
4452;SDS011;2239;48.152;11.584;2023-02-15T14:38:41;10.87;;;3.47;;
4452;SDS011;2239;48.152;11.584;2023-02-15T14:46:52;9.97;;;3.90;;
4452;SDS011;2239;48.152;11.584;2023-02-15T14:49:33;4.37;;;2.33;;
4452;SDS011;2239;48.152;11.584;2023-02-15T14:52:06;6.60;;;3.57;;
4452;SDS011;2239;48.152;11.584;2023-02-15T15:02:07;7.07;;;3.17;;
4452;SDS011;2239;48.152;11.584;2023-02-15T15:04:36;8.30;;;2.87;;
4452;SDS011;2239;48.152;11.584;2023-02-15T15:07:17;5.93;;;3.00;;
4452;SDS011;2239;48.152;11.584;2023-02-15T15:10:07;8.40;;;3.47;;
4452;SDS011;2239;48.152;11.584;2023-02-15T15:12:51;7.80;;;3.33;;
4452;SDS011;2239;48.152;11.584;2023-02-15T15:18:09;9.73;;;2.70;;
4452;SDS011;2239;48.152;11.584;2023-02-15T15:47:50;8.40;;;4.03;;
4452;SDS011;2239;48.152;11.584;2023-02-15T15:50:25;4.50;;;2.70;;
4452;SDS011;2239;48.152;11.584;2023-02-15T15:52:55;8.20;;;2.33;;
4452;SDS011;2239;48.152;11.584;2023-02-15T15:55:24;7.77;;;2.63;;
4452;SDS011;2239;48.152;11.584;2023-02-15T15:57:56;9.50;;;3.70;;
4452;SDS011;2239;48.152;11.584;2023-02-15T16:03:47;5.77;;;2.17;;
4452;SDS011;2239;48.152;11.584;2023-02-15T16:06:01;4.83;;;2.77;;
4452;SDS011;2239;48.152;11.584;2023-02-15T16:10:57;5.40;;;2.70;;
4452;SDS011;2239;48.152;11.584;2023-02-15T16:13:24;3.13;;;2.67;;
4452;SDS011;2239;48.152;11.584;2023-02-15T16:15:53;7.97;;;3.07;;
4452;SDS011;2239;48.152;11.584;2023-02-15T16:18:24;5.45;;;2.08;;
4452;SDS011;2239;48.152;11.584;2023-02-15T16:20:53;3.50;;;1.90;;
4452;SDS011;2239;48.152;11.584;2023-02-15T16:28:58;2.20;;;2.08;;
4452;SDS011;2239;48.152;11.584;2023-02-15T16:31:24;7.13;;;2.80;;
4452;SDS011;2239;48.152;11.584;2023-02-15T16:33:52;5.80;;;2.40;;
4452;SDS011;2239;48.152;11.584;2023-02-15T16:36:23;7.70;;;2.30;;
4452;SDS011;2239;48.152;11.584;2023-02-15T16:41:17;3.57;;;2.50;;
4452;SDS011;2239;48.152;11.584;2023-02-15T16:43:48;6.93;;;3.13;;
4452;SDS011;2239;48.152;11.584;2023-02-15T16:46:15;7.10;;;3.22;;
4452;SDS011;2239;48.152;11.584;2023-02-15T16:48:45;8.40;;;2.88;;
4452;SDS011;2239;48.152;11.584;2023-02-15T16:51:23;4.72;;;2.25;;
4452;SDS011;2239;48.152;11.584;2023-02-15T16:53:51;2.22;;;2.00;;
4452;SDS011;2239;48.152;11.584;2023-02-15T16:56:22;6.32;;;3.05;;
4452;SDS011;2239;48.152;11.584;2023-02-15T16:58:50;2.17;;;1.65;;
4452;SDS011;2239;48.152;11.584;2023-02-15T17:01:19;2.72;;;2.00;;
4452;SDS011;2239;48.152;11.584;2023-02-15T17:03:48;2.95;;;2.17;;
4452;SDS011;2239;48.152;11.584;2023-02-15T17:06:22;7.22;;;2.67;;
4452;SDS011;2239;48.152;11.584;2023-02-15T17:08:51;5.22;;;3.25;;
4452;SDS011;2239;48.152;11.584;2023-02-15T17:11:21;4.60;;;3.00;;
4452;SDS011;2239;48.152;11.584;2023-02-15T17:16:42;13.77;;;4.18;;
4452;SDS011;2239;48.152;11.584;2023-02-15T17:19:18;4.53;;;3.35;;
4452;SDS011;2239;48.152;11.584;2023-02-15T17:21:51;3.85;;;1.92;;
4452;SDS011;2239;48.152;11.584;2023-02-15T17:27:02;2.10;;;1.35;;
4452;SDS011;2239;48.152;11.584;2023-02-15T17:29:33;4.93;;;1.92;;
4452;SDS011;2239;48.152;11.584;2023-02-15T17:32:02;2.13;;;1.92;;
4452;SDS011;2239;48.152;11.584;2023-02-15T17:37:12;2.17;;;2.03;;
4452;SDS011;2239;48.152;11.584;2023-02-15T17:39:47;2.67;;;1.73;;
4452;SDS011;2239;48.152;11.584;2023-02-15T17:42:12;16.03;;;4.20;;
4452;SDS011;2239;48.152;11.584;2023-02-15T17:44:38;5.50;;;3.20;;
4452;SDS011;2239;48.152;11.584;2023-02-15T17:47:04;10.73;;;4.10;;
4452;SDS011;2239;48.152;11.584;2023-02-15T17:49:29;8.57;;;2.37;;
4452;SDS011;2239;48.152;11.584;2023-02-15T17:52:00;4.10;;;2.80;;
4452;SDS011;2239;48.152;11.584;2023-02-15T17:54:26;15.75;;;5.47;;
4452;SDS011;2239;48.152;11.584;2023-02-15T17:57:12;6.95;;;2.80;;
4452;SDS011;2239;48.152;11.584;2023-02-15T17:59:38;9.18;;;2.65;;
4452;SDS011;2239;48.152;11.584;2023-02-15T18:02:22;1.85;;;1.67;;
4452;SDS011;2239;48.152;11.584;2023-02-15T18:05:13;3.28;;;1.27;;
4452;SDS011;2239;48.152;11.584;2023-02-15T18:07:58;1.63;;;1.35;;
4452;SDS011;2239;48.152;11.584;2023-02-15T18:10:42;2.08;;;1.92;;
4452;SDS011;2239;48.152;11.584;2023-02-15T18:13:26;2.88;;;1.60;;
4452;SDS011;2239;48.152;11.584;2023-02-15T18:15:52;2.40;;;2.00;;
4452;SDS011;2239;48.152;11.584;2023-02-15T18:18:18;11.02;;;2.00;;